Aviston, Illinois
Current Conditions -  °F | °C
As of 4:48 AM on Sunday 26 Oct 2014 (Local Time) from KBLV Reporting Station
Haze Haze  
Wind Chill:   Ceiling: Unl
Heat Index:   Visibility: 4mi
Dew Point:   Wind: 0mph
Humidity: 93%   Direction: NA
Pressure: 30.02"   Gusts: NA
Location:  38.61°N, 89.61°W
Report Text: KBLV 260948Z AUTO 00000KT 4SM R32R/4500FT BR CLR 09/08 A3002 RMK AO2
Loading
Personal Weather Stations






























Interactive Weather Map
Tropical Storm Tracking
New forecast layout! Learn more

10-Day Weather Forecast

Advertisements
Track Severe Weather on mobile